sensor_id;sensor_type;location;lat;lon;timestamp;pressure;altitude;pressure_sealevel;temperature;humidity
74708;BME280;63360;50.104;8.074;2023-06-19T00:02:05;96716.19;;;19.37;74.73
74708;BME280;63360;50.104;8.074;2023-06-19T00:04:31;96721.47;;;19.37;74.76
74708;BME280;63360;50.104;8.074;2023-06-19T00:06:59;96709.34;;;19.22;78.75
74708;BME280;63360;50.104;8.074;2023-06-19T00:09:26;96716.13;;;19.19;79.57
74708;BME280;63360;50.104;8.074;2023-06-19T00:11:52;96700.63;;;19.11;79.58
74708;BME280;63360;50.104;8.074;2023-06-19T00:14:19;96710.84;;;19.16;78.34
74708;BME280;63360;50.104;8.074;2023-06-19T00:16:45;96706.28;;;19.02;76.79
74708;BME280;63360;50.104;8.074;2023-06-19T00:19:12;96714.53;;;18.97;75.83
74708;BME280;63360;50.104;8.074;2023-06-19T00:21:38;96720.91;;;18.96;73.46
74708;BME280;63360;50.104;8.074;2023-06-19T00:24:05;96726.94;;;18.93;73.59
74708;BME280;63360;50.104;8.074;2023-06-19T00:26:32;96717.13;;;18.87;73.57
74708;BME280;63360;50.104;8.074;2023-06-19T00:28:58;96712.91;;;18.75;75.23
74708;BME280;63360;50.104;8.074;2023-06-19T00:31:25;96717.41;;;18.74;74.42
74708;BME280;63360;50.104;8.074;2023-06-19T00:33:53;96721.53;;;18.72;75.03
74708;BME280;63360;50.104;8.074;2023-06-19T00:36:20;96709.03;;;18.58;74.53
74708;BME280;63360;50.104;8.074;2023-06-19T00:38:47;96721.50;;;18.68;74.42
74708;BME280;63360;50.104;8.074;2023-06-19T00:41:17;96719.63;;;18.65;76.49
74708;BME280;63360;50.104;8.074;2023-06-19T00:43:44;96711.97;;;18.50;79.44
74708;BME280;63360;50.104;8.074;2023-06-19T00:46:10;96711.88;;;18.36;76.21
74708;BME280;63360;50.104;8.074;2023-06-19T00:48:38;96694.50;;;18.28;74.90
74708;BME280;63360;50.104;8.074;2023-06-19T00:51:05;96692.22;;;18.26;75.39
74708;BME280;63360;50.104;8.074;2023-06-19T00:53:32;96713.38;;;18.37;75.64
74708;BME280;63360;50.104;8.074;2023-06-19T00:56:00;96709.19;;;18.32;74.84
74708;BME280;63360;50.104;8.074;2023-06-19T00:58:27;96708.09;;;18.33;74.58
74708;BME280;63360;50.104;8.074;2023-06-19T01:00:53;96715.56;;;18.31;74.76
74708;BME280;63360;50.104;8.074;2023-06-19T01:03:34;96724.25;;;18.32;75.08
74708;BME280;63360;50.104;8.074;2023-06-19T01:06:06;96721.59;;;18.28;75.30
74708;BME280;63360;50.104;8.074;2023-06-19T01:09:08;96729.88;;;18.34;75.16
74708;BME280;63360;50.104;8.074;2023-06-19T01:11:41;96722.41;;;18.36;74.16
74708;BME280;63360;50.104;8.074;2023-06-19T01:14:14;96722.41;;;18.39;73.48
74708;BME280;63360;50.104;8.074;2023-06-19T01:16:41;96721.59;;;18.32;73.51
74708;BME280;63360;50.104;8.074;2023-06-19T01:19:10;96721.66;;;18.35;73.88
74708;BME280;63360;50.104;8.074;2023-06-19T01:21:37;96712.59;;;18.33;73.74
74708;BME280;63360;50.104;8.074;2023-06-19T01:24:04;96719.34;;;18.34;74.10
74708;BME280;63360;50.104;8.074;2023-06-19T01:26:30;96720.16;;;18.38;73.82
74708;BME280;63360;50.104;8.074;2023-06-19T01:28:57;96707.03;;;18.41;74.08
74708;BME280;63360;50.104;8.074;2023-06-19T01:31:31;96721.69;;;18.42;74.13
74708;BME280;63360;50.104;8.074;2023-06-19T01:34:01;96727.41;;;18.48;73.35
74708;BME280;63360;50.104;8.074;2023-06-19T01:36:28;96725.88;;;18.47;73.62
74708;BME280;63360;50.104;8.074;2023-06-19T01:38:57;96728.84;;;18.45;73.53
74708;BME280;63360;50.104;8.074;2023-06-19T01:41:24;96726.19;;;18.38;74.06
74708;BME280;63360;50.104;8.074;2023-06-19T01:43:52;96739.00;;;18.43;73.53
74708;BME280;63360;50.104;8.074;2023-06-19T01:46:19;96735.28;;;18.48;72.07
74708;BME280;63360;50.104;8.074;2023-06-19T01:48:46;96732.59;;;18.41;71.13
74708;BME280;63360;50.104;8.074;2023-06-19T01:51:12;96746.16;;;18.43;70.10
74708;BME280;63360;50.104;8.074;2023-06-19T01:53:39;96742.09;;;18.49;69.19
74708;BME280;63360;50.104;8.074;2023-06-19T01:56:06;96734.53;;;18.47;69.52
74708;BME280;63360;50.104;8.074;2023-06-19T01:58:32;96745.00;;;18.40;73.47
74708;BME280;63360;50.104;8.074;2023-06-19T02:00:59;96733.59;;;18.26;74.96
74708;BME280;63360;50.104;8.074;2023-06-19T02:03:25;96749.38;;;18.26;74.72
74708;BME280;63360;50.104;8.074;2023-06-19T02:05:52;96735.41;;;18.14;74.44
74708;BME280;63360;50.104;8.074;2023-06-19T02:08:18;96748.16;;;18.12;74.61
74708;BME280;63360;50.104;8.074;2023-06-19T02:10:45;96757.19;;;18.11;74.95
74708;BME280;63360;50.104;8.074;2023-06-19T02:13:12;96753.34;;;18.05;75.99
74708;BME280;63360;50.104;8.074;2023-06-19T02:15:38;96747.63;;;17.96;76.15
74708;BME280;63360;50.104;8.074;2023-06-19T02:18:06;96750.25;;;17.93;76.04
74708;BME280;63360;50.104;8.074;2023-06-19T02:20:32;96756.69;;;17.99;75.45
74708;BME280;63360;50.104;8.074;2023-06-19T02:22:59;96748.72;;;17.92;75.86
74708;BME280;63360;50.104;8.074;2023-06-19T02:25:25;96756.91;;;17.83;76.55
74708;BME280;63360;50.104;8.074;2023-06-19T02:27:51;96755.00;;;17.80;76.63
74708;BME280;63360;50.104;8.074;2023-06-19T02:30:18;96753.84;;;17.78;76.94
74708;BME280;63360;50.104;8.074;2023-06-19T02:32:44;96751.94;;;17.75;76.71
74708;BME280;63360;50.104;8.074;2023-06-19T02:35:11;96756.47;;;17.78;76.84
74708;BME280;63360;50.104;8.074;2023-06-19T02:37:38;96754.56;;;17.75;76.99
74708;BME280;63360;50.104;8.074;2023-06-19T02:40:05;96747.00;;;17.70;76.96
74708;BME280;63360;50.104;8.074;2023-06-19T02:42:32;96751.94;;;17.75;77.33
74708;BME280;63360;50.104;8.074;2023-06-19T02:44:59;96767.56;;;17.97;75.69
74708;BME280;63360;50.104;8.074;2023-06-19T02:47:30;96761.38;;;18.20;73.43
74708;BME280;63360;50.104;8.074;2023-06-19T02:50:02;96764.69;;;18.53;71.52
74708;BME280;63360;50.104;8.074;2023-06-19T02:52:29;96762.16;;;18.71;70.88
74708;BME280;63360;50.104;8.074;2023-06-19T02:54:56;96768.34;;;18.93;69.87
74708;BME280;63360;50.104;8.074;2023-06-19T02:57:23;96768.03;;;19.08;68.78
74708;BME280;63360;50.104;8.074;2023-06-19T02:59:49;96769.22;;;19.14;69.06
74708;BME280;63360;50.104;8.074;2023-06-19T03:02:15;96768.59;;;19.39;67.63
74708;BME280;63360;50.104;8.074;2023-06-19T03:04:42;96775.41;;;19.47;67.11
74708;BME280;63360;50.104;8.074;2023-06-19T03:07:10;96783.41;;;19.71;66.33
74708;BME280;63360;50.104;8.074;2023-06-19T03:09:36;96768.31;;;19.65;66.11
74708;BME280;63360;50.104;8.074;2023-06-19T03:12:03;96783.03;;;19.73;66.21
74708;BME280;63360;50.104;8.074;2023-06-19T03:14:30;96787.94;;;19.71;66.25
74708;BME280;63360;50.104;8.074;2023-06-19T03:16:56;96786.44;;;19.66;66.88
74708;BME280;63360;50.104;8.074;2023-06-19T03:19:23;96795.47;;;19.69;66.73
74708;BME280;63360;50.104;8.074;2023-06-19T03:21:49;96783.78;;;19.66;66.22
74708;BME280;63360;50.104;8.074;2023-06-19T03:24:16;96784.50;;;19.60;67.30
74708;BME280;63360;50.104;8.074;2023-06-19T03:26:42;96796.56;;;19.61;67.26
74708;BME280;63360;50.104;8.074;2023-06-19T03:29:09;96798.81;;;19.59;67.84
74708;BME280;63360;50.104;8.074;2023-06-19T03:31:35;96797.28;;;19.54;67.17
74708;BME280;63360;50.104;8.074;2023-06-19T03:34:01;96798.44;;;19.53;67.96
74708;BME280;63360;50.104;8.074;2023-06-19T03:36:28;96812.38;;;19.50;68.08
74708;BME280;63360;50.104;8.074;2023-06-19T03:38:54;96808.22;;;19.49;68.26
74708;BME280;63360;50.104;8.074;2023-06-19T03:41:22;96815.00;;;19.54;67.42
74708;BME280;63360;50.104;8.074;2023-06-19T03:43:48;96809.72;;;19.47;67.88
74708;BME280;63360;50.104;8.074;2023-06-19T03:46:14;96812.38;;;19.54;68.01
74708;BME280;63360;50.104;8.074;2023-06-19T03:48:41;96811.59;;;19.50;67.79
74708;BME280;63360;50.104;8.074;2023-06-19T03:51:07;96802.94;;;19.49;67.61
74708;BME280;63360;50.104;8.074;2023-06-19T03:53:34;96816.91;;;19.57;67.54
74708;BME280;63360;50.104;8.074;2023-06-19T03:56:00;96807.50;;;19.56;67.22
74708;BME280;63360;50.104;8.074;2023-06-19T03:58:27;96819.53;;;19.57;67.29
74708;BME280;63360;50.104;8.074;2023-06-19T04:00:53;96830.84;;;19.54;68.02
74708;BME280;63360;50.104;8.074;2023-06-19T04:03:19;96831.25;;;19.56;68.29
74708;BME280;63360;50.104;8.074;2023-06-19T04:05:46;96831.19;;;19.45;68.85
74708;BME280;63360;50.104;8.074;2023-06-19T04:08:13;96834.94;;;19.44;68.74
74708;BME280;63360;50.104;8.074;2023-06-19T04:10:40;96837.56;;;19.41;68.51
74708;BME280;63360;50.104;8.074;2023-06-19T04:13:06;96842.44;;;19.39;69.59
74708;BME280;63360;50.104;8.074;2023-06-19T04:15:33;96845.41;;;19.33;69.84
74708;BME280;63360;50.104;8.074;2023-06-19T04:18:01;96827.69;;;19.30;70.00
74708;BME280;63360;50.104;8.074;2023-06-19T04:20:28;96835.97;;;19.29;70.23
74708;BME280;63360;50.104;8.074;2023-06-19T04:22:54;96837.47;;;19.26;70.84
74708;BME280;63360;50.104;8.074;2023-06-19T04:25:21;96843.09;;;19.25;71.61
74708;BME280;63360;50.104;8.074;2023-06-19T04:27:48;96845.38;;;19.26;71.64
74708;BME280;63360;50.104;8.074;2023-06-19T04:30:14;96868.34;;;19.29;71.82
74708;BME280;63360;50.104;8.074;2023-06-19T04:32:41;96862.34;;;19.29;71.43
74708;BME280;63360;50.104;8.074;2023-06-19T04:35:10;96857.06;;;19.29;72.48
74708;BME280;63360;50.104;8.074;2023-06-19T04:37:37;96856.34;;;19.35;71.86
74708;BME280;63360;50.104;8.074;2023-06-19T04:40:04;96848.44;;;19.35;71.41
74708;BME280;63360;50.104;8.074;2023-06-19T04:42:31;96851.16;;;19.43;71.79
74708;BME280;63360;50.104;8.074;2023-06-19T04:44:57;96849.66;;;19.49;71.29
74708;BME280;63360;50.104;8.074;2023-06-19T04:47:25;96858.03;;;19.61;68.86
74708;BME280;63360;50.104;8.074;2023-06-19T04:50:01;96847.47;;;19.61;70.63
74708;BME280;63360;50.104;8.074;2023-06-19T04:52:28;96846.34;;;19.66;71.31
74708;BME280;63360;50.104;8.074;2023-06-19T04:54:54;96853.22;;;19.88;70.61
74708;BME280;63360;50.104;8.074;2023-06-19T04:57:21;96850.22;;;19.89;69.56
74708;BME280;63360;50.104;8.074;2023-06-19T04:59:47;96842.72;;;20.06;67.04
74708;BME280;63360;50.104;8.074;2023-06-19T05:02:13;96844.63;;;20.09;67.14
74708;BME280;63360;50.104;8.074;2023-06-19T05:04:40;96846.56;;;20.26;70.49
74708;BME280;63360;50.104;8.074;2023-06-19T05:07:10;96854.09;;;20.31;68.25
74708;BME280;63360;50.104;8.074;2023-06-19T05:09:37;96856.41;;;20.46;67.50
74708;BME280;63360;50.104;8.074;2023-06-19T05:12:04;96853.38;;;20.48;67.72
74708;BME280;63360;50.104;8.074;2023-06-19T05:14:30;96856.03;;;20.66;68.13
74708;BME280;63360;50.104;8.074;2023-06-19T05:16:57;96851.91;;;20.75;66.58
74708;BME280;63360;50.104;8.074;2023-06-19T05:19:23;96858.69;;;20.94;66.30
74708;BME280;63360;50.104;8.074;2023-06-19T05:21:50;96854.91;;;21.02;65.96
74708;BME280;63360;50.104;8.074;2023-06-19T05:24:16;96858.28;;;21.02;65.91
74708;BME280;63360;50.104;8.074;2023-06-19T05:26:42;96859.03;;;21.03;65.17
74708;BME280;63360;50.104;8.074;2023-06-19T05:29:09;96860.22;;;21.09;64.59
74708;BME280;63360;50.104;8.074;2023-06-19T05:31:35;96864.34;;;21.17;64.77
74708;BME280;63360;50.104;8.074;2023-06-19T05:34:02;96854.53;;;21.10;64.95
74708;BME280;63360;50.104;8.074;2023-06-19T05:36:28;96850.75;;;21.08;66.13
74708;BME280;63360;50.104;8.074;2023-06-19T05:38:55;96856.44;;;21.21;65.75
74708;BME280;63360;50.104;8.074;2023-06-19T05:41:21;96874.16;;;21.34;64.04
74708;BME280;63360;50.104;8.074;2023-06-19T05:43:48;96884.69;;;21.48;63.89
74708;BME280;63360;50.104;8.074;2023-06-19T05:46:14;96879.03;;;21.50;64.31
74708;BME280;63360;50.104;8.074;2023-06-19T05:48:41;96883.91;;;21.62;63.86
74708;BME280;63360;50.104;8.074;2023-06-19T05:51:07;96876.31;;;21.71;63.73
74708;BME280;63360;50.104;8.074;2023-06-19T05:53:34;96888.00;;;21.91;64.04
74708;BME280;63360;50.104;8.074;2023-06-19T05:56:00;96884.56;;;21.98;63.10
74708;BME280;63360;50.104;8.074;2023-06-19T05:58:27;96893.03;;;22.44;59.79
74708;BME280;63360;50.104;8.074;2023-06-19T06:00:53;96889.59;;;22.47;60.20
74708;BME280;63360;50.104;8.074;2023-06-19T06:03:24;96897.59;;;22.40;59.83
74708;BME280;63360;50.104;8.074;2023-06-19T06:05:51;96894.88;;;22.51;59.49
74708;BME280;63360;50.104;8.074;2023-06-19T06:08:18;96893.66;;;22.62;58.90
74708;BME280;63360;50.104;8.074;2023-06-19T06:10:44;96899.16;;;22.92;58.92
74708;BME280;63360;50.104;8.074;2023-06-19T06:13:11;96898.22;;;23.13;58.13
74708;BME280;63360;50.104;8.074;2023-06-19T06:15:37;96908.56;;;23.45;56.66
74708;BME280;63360;50.104;8.074;2023-06-19T06:18:04;96914.75;;;23.69;55.23
74708;BME280;63360;50.104;8.074;2023-06-19T06:20:30;96913.75;;;23.59;55.97
74708;BME280;63360;50.104;8.074;2023-06-19T06:22:57;96909.22;;;23.90;55.43
74708;BME280;63360;50.104;8.074;2023-06-19T06:25:23;96915.38;;;23.83;55.93
74708;BME280;63360;50.104;8.074;2023-06-19T06:27:49;96916.22;;;24.10;55.03
74708;BME280;63360;50.104;8.074;2023-06-19T06:30:16;96913.66;;;24.60;53.08
74708;BME280;63360;50.104;8.074;2023-06-19T06:32:45;96907.78;;;24.46;54.39
74708;BME280;63360;50.104;8.074;2023-06-19T06:35:12;96912.94;;;24.56;54.02
74708;BME280;63360;50.104;8.074;2023-06-19T06:37:39;96923.00;;;24.72;54.59
74708;BME280;63360;50.104;8.074;2023-06-19T06:40:07;96924.09;;;24.48;53.35
74708;BME280;63360;50.104;8.074;2023-06-19T06:42:38;96927.88;;;24.20;54.91
74708;BME280;63360;50.104;8.074;2023-06-19T06:45:05;96931.16;;;24.58;53.86
74708;BME280;63360;50.104;8.074;2023-06-19T06:47:34;96931.50;;;23.99;55.22
74708;BME280;63360;50.104;8.074;2023-06-19T06:50:01;96928.75;;;24.40;54.90
74708;BME280;63360;50.104;8.074;2023-06-19T06:52:27;96922.69;;;24.40;54.56
74708;BME280;63360;50.104;8.074;2023-06-19T06:54:54;96920.34;;;24.45;54.42
74708;BME280;63360;50.104;8.074;2023-06-19T06:57:20;96923.03;;;24.11;55.55
74708;BME280;63360;50.104;8.074;2023-06-19T06:59:47;96920.78;;;23.39;57.58
74708;BME280;63360;50.104;8.074;2023-06-19T07:02:13;96924.91;;;22.96;59.65
74708;BME280;63360;50.104;8.074;2023-06-19T07:04:40;96936.34;;;23.33;59.44
74708;BME280;63360;50.104;8.074;2023-06-19T07:07:06;96940.13;;;23.32;59.32
74708;BME280;63360;50.104;8.074;2023-06-19T07:09:35;96927.38;;;23.17;60.25
74708;BME280;63360;50.104;8.074;2023-06-19T07:12:01;96937.66;;;23.56;60.46
74708;BME280;63360;50.104;8.074;2023-06-19T07:14:30;96942.25;;;23.55;60.50
74708;BME280;63360;50.104;8.074;2023-06-19T07:16:57;96941.88;;;23.53;60.24
74708;BME280;63360;50.104;8.074;2023-06-19T07:19:23;96955.38;;;23.69;60.53
74708;BME280;63360;50.104;8.074;2023-06-19T07:21:50;96951.81;;;23.83;59.94
74708;BME280;63360;50.104;8.074;2023-06-19T07:24:17;96953.56;;;23.96;59.65
74708;BME280;63360;50.104;8.074;2023-06-19T07:26:46;96947.84;;;23.98;61.45
74708;BME280;63360;50.104;8.074;2023-06-19T07:29:12;96945.09;;;24.08;59.50
74708;BME280;63360;50.104;8.074;2023-06-19T07:31:38;96948.06;;;24.14;58.36
74708;BME280;63360;50.104;8.074;2023-06-19T07:34:05;96947.50;;;23.96;59.40
74708;BME280;63360;50.104;8.074;2023-06-19T07:36:31;96951.91;;;23.72;59.97
74708;BME280;63360;50.104;8.074;2023-06-19T07:38:58;96953.75;;;23.41;61.06
74708;BME280;63360;50.104;8.074;2023-06-19T07:41:24;96952.16;;;23.00;62.73
74708;BME280;63360;50.104;8.074;2023-06-19T07:43:51;96964.19;;;23.15;62.05
74708;BME280;63360;50.104;8.074;2023-06-19T07:46:17;96956.81;;;22.81;64.20
74708;BME280;63360;50.104;8.074;2023-06-19T07:48:44;96975.78;;;22.80;64.32
74708;BME280;63360;50.104;8.074;2023-06-19T07:51:10;96972.84;;;22.67;64.40
74708;BME280;63360;50.104;8.074;2023-06-19T07:53:36;96980.44;;;22.58;65.35
74708;BME280;63360;50.104;8.074;2023-06-19T07:56:03;96983.50;;;22.53;65.82
74708;BME280;63360;50.104;8.074;2023-06-19T07:58:30;96979.41;;;22.31;66.20
74708;BME280;63360;50.104;8.074;2023-06-19T08:00:56;96971.38;;;22.52;65.71
74708;BME280;63360;50.104;8.074;2023-06-19T08:03:23;96971.81;;;22.37;67.33
74708;BME280;63360;50.104;8.074;2023-06-19T08:05:50;96974.97;;;22.07;67.44
74708;BME280;63360;50.104;8.074;2023-06-19T08:08:17;96984.34;;;22.25;67.21
74708;BME280;63360;50.104;8.074;2023-06-19T08:10:43;96978.75;;;22.02;67.96
74708;BME280;63360;50.104;8.074;2023-06-19T08:13:10;96999.19;;;22.02;68.54
74708;BME280;63360;50.104;8.074;2023-06-19T08:15:37;96997.69;;;21.97;68.86
74708;BME280;63360;50.104;8.074;2023-06-19T08:18:04;96995.84;;;21.87;69.04
74708;BME280;63360;50.104;8.074;2023-06-19T08:20:30;97009.44;;;22.00;68.91
74708;BME280;63360;50.104;8.074;2023-06-19T08:22:57;97005.66;;;21.87;69.08
74708;BME280;63360;50.104;8.074;2023-06-19T08:25:23;97004.16;;;21.79;69.34
74708;BME280;63360;50.104;8.074;2023-06-19T08:27:50;96989.75;;;21.94;68.50
74708;BME280;63360;50.104;8.074;2023-06-19T08:30:16;96993.16;;;21.94;68.91
74708;BME280;63360;50.104;8.074;2023-06-19T08:32:43;96993.16;;;21.80;68.67
74708;BME280;63360;50.104;8.074;2023-06-19T08:35:10;96981.44;;;21.88;68.56
74708;BME280;63360;50.104;8.074;2023-06-19T08:37:36;96990.53;;;21.87;68.01
74708;BME280;63360;50.104;8.074;2023-06-19T08:40:04;96999.19;;;22.09;68.02
74708;BME280;63360;50.104;8.074;2023-06-19T08:42:35;97000.69;;;22.10;69.09
74708;BME280;63360;50.104;8.074;2023-06-19T08:45:02;96995.00;;;22.15;68.29
74708;BME280;63360;50.104;8.074;2023-06-19T08:47:30;97005.94;;;22.24;67.99
74708;BME280;63360;50.104;8.074;2023-06-19T08:49:58;96987.78;;;22.22;67.00
74708;BME280;63360;50.104;8.074;2023-06-19T08:52:27;96995.72;;;22.29;67.91
74708;BME280;63360;50.104;8.074;2023-06-19T08:54:54;97008.88;;;22.51;67.21
74708;BME280;63360;50.104;8.074;2023-06-19T08:57:20;96987.28;;;22.52;64.43
74708;BME280;63360;50.104;8.074;2023-06-19T08:59:50;96991.78;;;22.59;63.86
74708;BME280;63360;50.104;8.074;2023-06-19T09:02:17;96984.22;;;22.57;64.58
74708;BME280;63360;50.104;8.074;2023-06-19T09:04:44;96994.00;;;22.74;62.94
74708;BME280;63360;50.104;8.074;2023-06-19T09:07:12;96989.13;;;22.59;65.26
74708;BME280;63360;50.104;8.074;2023-06-19T09:09:44;96986.41;;;22.76;63.28
74708;BME280;63360;50.104;8.074;2023-06-19T09:12:12;96996.22;;;22.83;63.70
74708;BME280;63360;50.104;8.074;2023-06-19T09:14:41;97007.56;;;22.83;61.37
74708;BME280;63360;50.104;8.074;2023-06-19T09:17:11;97003.38;;;22.89;61.20
74708;BME280;63360;50.104;8.074;2023-06-19T09:19:38;96995.63;;;23.13;59.39
74708;BME280;63360;50.104;8.074;2023-06-19T09:22:12;96993.72;;;23.20;59.11
74708;BME280;63360;50.104;8.074;2023-06-19T09:24:40;96994.06;;;23.22;60.54
74708;BME280;63360;50.104;8.074;2023-06-19T09:27:09;96994.78;;;23.26;59.00
74708;BME280;63360;50.104;8.074;2023-06-19T09:29:40;96983.09;;;23.20;59.88
74708;BME280;63360;50.104;8.074;2023-06-19T09:34:47;96983.97;;;23.55;57.94
74708;BME280;63360;50.104;8.074;2023-06-19T09:37:14;96982.81;;;23.56;56.70
74708;BME280;63360;50.104;8.074;2023-06-19T09:39:41;96987.06;;;23.49;54.15
74708;BME280;63360;50.104;8.074;2023-06-19T09:42:09;96990.31;;;23.64;53.72
74708;BME280;63360;50.104;8.074;2023-06-19T09:44:41;96981.59;;;23.64;53.68
74708;BME280;63360;50.104;8.074;2023-06-19T09:47:16;96983.22;;;23.50;53.63
74708;BME280;63360;50.104;8.074;2023-06-19T09:49:49;96990.03;;;23.55;52.33
74708;BME280;63360;50.104;8.074;2023-06-19T09:52:16;96992.28;;;23.57;53.08
74708;BME280;63360;50.104;8.074;2023-06-19T09:54:45;96988.59;;;23.47;53.09
74708;BME280;63360;50.104;8.074;2023-06-19T09:57:12;97000.22;;;23.60;53.45
74708;BME280;63360;50.104;8.074;2023-06-19T09:59:39;96986.78;;;23.33;52.72
74708;BME280;63360;50.104;8.074;2023-06-19T10:02:08;96978.78;;;23.37;52.98
74708;BME280;63360;50.104;8.074;2023-06-19T10:04:43;96996.47;;;23.54;53.52
74708;BME280;63360;50.104;8.074;2023-06-19T10:07:18;96987.28;;;23.66;53.17
74708;BME280;63360;50.104;8.074;2023-06-19T10:10:03;96998.97;;;23.72;52.52
74708;BME280;63360;50.104;8.074;2023-06-19T10:12:44;96996.41;;;23.61;53.70
74708;BME280;63360;50.104;8.074;2023-06-19T10:15:25;96994.13;;;23.63;54.15
74708;BME280;63360;50.104;8.074;2023-06-19T10:17:59;96996.06;;;23.59;54.84
74708;BME280;63360;50.104;8.074;2023-06-19T10:20:28;97001.38;;;23.56;54.38
74708;BME280;63360;50.104;8.074;2023-06-19T10:23:11;96991.59;;;23.49;55.68
74708;BME280;63360;50.104;8.074;2023-06-19T10:25:41;96996.94;;;23.42;53.93
74708;BME280;63360;50.104;8.074;2023-06-19T10:28:23;96989.41;;;23.40;55.91
74708;BME280;63360;50.104;8.074;2023-06-19T10:30:58;96981.91;;;23.28;55.63
74708;BME280;63360;50.104;8.074;2023-06-19T10:33:27;96991.31;;;23.33;56.10
74708;BME280;63360;50.104;8.074;2023-06-19T10:35:54;96990.28;;;23.20;56.34
74708;BME280;63360;50.104;8.074;2023-06-19T10:38:21;96977.38;;;23.22;55.92
74708;BME280;63360;50.104;8.074;2023-06-19T10:40:47;96985.34;;;23.22;53.08
74708;BME280;63360;50.104;8.074;2023-06-19T10:43:22;96989.91;;;23.21;52.79
74708;BME280;63360;50.104;8.074;2023-06-19T10:45:51;96986.88;;;23.23;55.22
74708;BME280;63360;50.104;8.074;2023-06-19T10:48:22;96984.56;;;23.25;58.01
74708;BME280;63360;50.104;8.074;2023-06-19T10:50:50;96994.41;;;23.24;58.58
74708;BME280;63360;50.104;8.074;2023-06-19T10:53:30;96994.81;;;23.23;59.16
74708;BME280;63360;50.104;8.074;2023-06-19T10:55:58;97003.91;;;23.22;57.89
74708;BME280;63360;50.104;8.074;2023-06-19T10:58:26;96989.25;;;23.07;59.07
74708;BME280;63360;50.104;8.074;2023-06-19T11:00:52;96984.38;;;23.02;58.80
74708;BME280;63360;50.104;8.074;2023-06-19T11:03:20;96988.06;;;23.11;60.03
74708;BME280;63360;50.104;8.074;2023-06-19T11:05:47;96981.56;;;23.19;58.50
74708;BME280;63360;50.104;8.074;2023-06-19T11:08:20;96978.50;;;23.21;58.68
74708;BME280;63360;50.104;8.074;2023-06-19T11:10:48;96989.19;;;23.17;57.68
74708;BME280;63360;50.104;8.074;2023-06-19T11:13:18;96989.94;;;23.18;58.32
74708;BME280;63360;50.104;8.074;2023-06-19T11:15:47;96981.22;;;23.17;58.51
74708;BME280;63360;50.104;8.074;2023-06-19T11:18:16;96971.03;;;23.12;58.66
74708;BME280;63360;50.104;8.074;2023-06-19T11:23:10;96973.59;;;23.23;57.79
74708;BME280;63360;50.104;8.074;2023-06-19T11:25:38;96982.28;;;23.27;59.51
74708;BME280;63360;50.104;8.074;2023-06-19T11:28:11;96975.00;;;23.34;58.47
74708;BME280;63360;50.104;8.074;2023-06-19T11:30:39;96977.28;;;23.36;57.89
74708;BME280;63360;50.104;8.074;2023-06-19T11:33:17;96982.97;;;23.34;60.30
74708;BME280;63360;50.104;8.074;2023-06-19T11:35:49;96979.19;;;23.32;59.24
74708;BME280;63360;50.104;8.074;2023-06-19T11:38:26;96982.22;;;23.34;59.62
74708;BME280;63360;50.104;8.074;2023-06-19T11:40:54;96970.88;;;23.26;60.06
74708;BME280;63360;50.104;8.074;2023-06-19T11:43:28;96978.00;;;23.40;60.08
74708;BME280;63360;50.104;8.074;2023-06-19T11:46:06;96964.75;;;23.36;56.34
74708;BME280;63360;50.104;8.074;2023-06-19T11:48:37;96977.16;;;23.50;57.40
74708;BME280;63360;50.104;8.074;2023-06-19T11:51:04;96961.63;;;23.52;57.26
74708;BME280;63360;50.104;8.074;2023-06-19T11:53:31;96960.78;;;23.59;58.40
74708;BME280;63360;50.104;8.074;2023-06-19T11:55:57;96961.50;;;23.63;56.19
74708;BME280;63360;50.104;8.074;2023-06-19T11:58:23;96955.78;;;23.64;57.00
74708;BME280;63360;50.104;8.074;2023-06-19T12:00:50;96956.91;;;23.67;54.49
74708;BME280;63360;50.104;8.074;2023-06-19T12:03:16;96952.28;;;23.74;54.75
74708;BME280;63360;50.104;8.074;2023-06-19T12:05:43;96953.25;;;23.91;56.17
74708;BME280;63360;50.104;8.074;2023-06-19T12:08:10;96953.09;;;24.05;55.61
74708;BME280;63360;50.104;8.074;2023-06-19T12:10:36;96955.53;;;24.26;55.66
74708;BME280;63360;50.104;8.074;2023-06-19T12:13:02;96956.59;;;24.32;52.57
74708;BME280;63360;50.104;8.074;2023-06-19T12:15:29;96954.84;;;24.49;51.80
74708;BME280;63360;50.104;8.074;2023-06-19T12:17:55;96951.38;;;24.52;50.89
74708;BME280;63360;50.104;8.074;2023-06-19T12:20:24;96937.28;;;24.55;51.48
74708;BME280;63360;50.104;8.074;2023-06-19T12:22:52;96944.44;;;24.61;51.00
74708;BME280;63360;50.104;8.074;2023-06-19T12:25:18;96944.34;;;24.65;51.07
74708;BME280;63360;50.104;8.074;2023-06-19T12:27:44;96939.34;;;24.70;50.58
74708;BME280;63360;50.104;8.074;2023-06-19T12:30:11;96937.28;;;24.85;50.74
74708;BME280;63360;50.104;8.074;2023-06-19T12:32:38;96935.59;;;24.95;51.28
74708;BME280;63360;50.104;8.074;2023-06-19T12:35:04;96937.63;;;25.10;49.96
74708;BME280;63360;50.104;8.074;2023-06-19T12:37:32;96938.09;;;25.05;50.87
74708;BME280;63360;50.104;8.074;2023-06-19T12:39:59;96932.53;;;25.19;50.47
74708;BME280;63360;50.104;8.074;2023-06-19T12:42:25;96933.84;;;25.31;49.17
74708;BME280;63360;50.104;8.074;2023-06-19T12:44:52;96931.94;;;25.31;49.64
74708;BME280;63360;50.104;8.074;2023-06-19T12:47:18;96931.66;;;25.26;46.41
74708;BME280;63360;50.104;8.074;2023-06-19T12:49:45;96929.75;;;25.26;47.92
74708;BME280;63360;50.104;8.074;2023-06-19T12:52:11;96931.94;;;25.31;48.07
74708;BME280;63360;50.104;8.074;2023-06-19T12:54:38;96941.97;;;25.47;47.11
74708;BME280;63360;50.104;8.074;2023-06-19T12:57:05;96940.94;;;25.41;47.10
74708;BME280;63360;50.104;8.074;2023-06-19T12:59:32;96930.78;;;25.33;48.21
74708;BME280;63360;50.104;8.074;2023-06-19T13:01:59;96934.13;;;25.37;49.84
74708;BME280;63360;50.104;8.074;2023-06-19T13:04:25;96944.06;;;25.36;49.43
74708;BME280;63360;50.104;8.074;2023-06-19T13:06:52;96934.84;;;25.41;47.39
74708;BME280;63360;50.104;8.074;2023-06-19T13:09:18;96936.63;;;25.24;45.08